createdAt,value
2017-07-06T00:00:40.058Z,1014.79
2017-07-06T00:01:40.082Z,1014.8
2017-07-06T00:02:40.106Z,1014.8
2017-07-06T00:03:40.129Z,1014.81
2017-07-06T00:04:40.156Z,1014.8
2017-07-06T00:05:40.173Z,1014.8
2017-07-06T00:06:40.202Z,1014.83
2017-07-06T00:07:40.224Z,1014.79
2017-07-06T00:09:40.267Z,1014.8
2017-07-06T00:10:40.296Z,1014.81
2017-07-06T00:11:40.320Z,1014.8
2017-07-06T00:12:40.344Z,1014.79
2017-07-06T00:13:40.363Z,1014.78
2017-07-06T00:14:40.384Z,1014.81
2017-07-06T00:15:40.413Z,1014.8
2017-07-06T00:16:40.436Z,1014.81
2017-07-06T00:17:40.455Z,1014.79
2017-07-06T00:18:40.482Z,1014.78
2017-07-06T00:19:40.503Z,1014.79
2017-07-06T00:20:40.533Z,1014.75
2017-07-06T00:21:40.552Z,1014.73
2017-07-06T00:22:40.576Z,1014.77
2017-07-06T00:23:40.596Z,1014.74
2017-07-06T00:24:40.623Z,1014.78
2017-07-06T00:25:40.644Z,1014.76
2017-07-06T00:26:40.671Z,1014.78
2017-07-06T00:27:40.694Z,1014.79
2017-07-06T00:28:40.714Z,1014.79
2017-07-06T00:29:40.740Z,1014.78
2017-07-06T00:30:40.762Z,1014.77
2017-07-06T00:31:40.787Z,1014.78
2017-07-06T00:32:40.808Z,1014.76
2017-07-06T00:33:40.836Z,1014.77
2017-07-06T00:34:40.854Z,1014.75
2017-07-06T00:35:40.879Z,1014.75
2017-07-06T00:36:40.900Z,1014.78
2017-07-06T00:37:40.930Z,1014.77
2017-07-06T00:38:40.951Z,1014.73
2017-07-06T00:39:40.972Z,1014.79
2017-07-06T00:41:41.019Z,1014.74
2017-07-06T00:42:41.045Z,1014.73
2017-07-06T00:43:41.066Z,1014.73
2017-07-06T00:44:41.091Z,1014.75
2017-07-06T00:45:41.114Z,1014.73
2017-07-06T00:46:41.141Z,1014.74
2017-07-06T00:47:41.159Z,1014.73
2017-07-06T00:48:41.183Z,1014.77
2017-07-06T00:49:41.206Z,1014.79
2017-07-06T00:50:41.276Z,1014.8
2017-07-06T00:51:41.254Z,1014.75
2017-07-06T00:52:41.276Z,1014.77
2017-07-06T00:53:41.299Z,1014.75
2017-07-06T00:54:41.322Z,1014.72
2017-07-06T00:55:41.348Z,1014.71
2017-07-06T00:57:41.397Z,1014.75
2017-07-06T00:58:41.415Z,1014.75
2017-07-06T00:59:41.437Z,1014.75
2017-07-06T01:00:41.466Z,1014.74
2017-07-06T01:01:41.487Z,1014.76
2017-07-06T01:02:41.507Z,1014.74
2017-07-06T01:03:41.533Z,1014.79
2017-07-06T01:04:41.557Z,1014.77
2017-07-06T01:05:41.580Z,1014.74
2017-07-06T01:06:41.605Z,1014.74
2017-07-06T01:07:41.625Z,1014.73
2017-07-06T01:08:41.653Z,1014.72
2017-07-06T01:09:41.671Z,1014.75
2017-07-06T01:10:41.696Z,1014.72
2017-07-06T01:11:41.720Z,1014.7
2017-07-06T01:13:41.762Z,1014.61
2017-07-06T01:14:41.789Z,1014.62
2017-07-06T01:15:41.809Z,1014.58
2017-07-06T01:16:41.838Z,1014.63
2017-07-06T01:17:41.858Z,1014.58
2017-07-06T01:18:41.882Z,1014.64
2017-07-06T01:19:41.902Z,1014.61
2017-07-06T01:20:41.929Z,1014.6
2017-07-06T01:21:41.952Z,1014.6
2017-07-06T01:22:41.973Z,1014.56
2017-07-06T01:23:41.994Z,1014.56
2017-07-06T01:24:42.020Z,1014.61
2017-07-06T01:25:42.046Z,1014.61
2017-07-06T01:26:42.064Z,1014.56
2017-07-06T01:27:42.092Z,1014.61
2017-07-06T01:29:42.133Z,1014.61
2017-07-06T01:30:42.160Z,1014.58
2017-07-06T01:31:42.183Z,1014.61
2017-07-06T01:32:42.208Z,1014.63
2017-07-06T01:33:42.227Z,1014.65
2017-07-06T01:34:42.254Z,1014.64
2017-07-06T01:35:42.272Z,1014.68
2017-07-06T01:36:42.294Z,1014.69
2017-07-06T01:37:42.320Z,1014.68
2017-07-06T01:38:42.346Z,1014.68
2017-07-06T01:39:42.364Z,1014.68
2017-07-06T01:40:42.391Z,1014.68
2017-07-06T01:41:42.413Z,1014.67
2017-07-06T01:42:42.438Z,1014.65
2017-07-06T01:44:42.485Z,1014.66
2017-07-06T01:45:42.505Z,1014.63
2017-07-06T01:46:42.530Z,1014.64
2017-07-06T01:47:42.553Z,1014.64
2017-07-06T01:48:42.575Z,1014.66
2017-07-06T01:49:42.598Z,1014.68
2017-07-06T01:50:42.619Z,1014.68
2017-07-06T01:51:42.646Z,1014.73
2017-07-06T01:52:42.673Z,1014.68
2017-07-06T01:53:42.688Z,1014.66
2017-07-06T01:54:42.715Z,1014.68
2017-07-06T01:55:42.738Z,1014.67
2017-07-06T01:56:42.759Z,1014.66
2017-07-06T01:57:42.781Z,1014.67
2017-07-06T01:58:42.810Z,1014.71
2017-07-06T01:59:42.829Z,1014.72
2017-07-06T02:00:42.853Z,1014.72
2017-07-06T02:01:42.877Z,1014.76
2017-07-06T02:02:42.902Z,1014.75
2017-07-06T02:03:42.923Z,1014.75
2017-07-06T02:04:42.942Z,1014.75
2017-07-06T02:05:42.969Z,1014.76
2017-07-06T02:06:42.993Z,1014.77
2017-07-06T02:07:43.014Z,1014.73
2017-07-06T02:08:43.038Z,1014.81
2017-07-06T02:09:43.061Z,1014.83
2017-07-06T02:10:43.084Z,1014.83
2017-07-06T02:11:43.107Z,1014.82
2017-07-06T02:12:43.129Z,1014.84
2017-07-06T02:13:43.152Z,1014.84
2017-07-06T02:14:43.174Z,1014.85
2017-07-06T02:16:43.221Z,1014.83
2017-07-06T02:17:43.243Z,1014.85
2017-07-06T02:18:43.268Z,1014.85
2017-07-06T02:19:43.292Z,1014.85
2017-07-06T02:20:43.317Z,1014.86
2017-07-06T02:21:43.338Z,1014.84
2017-07-06T02:22:43.360Z,1014.89
2017-07-06T02:23:43.382Z,1014.85
2017-07-06T02:24:43.407Z,1014.89
2017-07-06T02:25:43.429Z,1014.95
2017-07-06T02:26:43.453Z,1014.94
2017-07-06T02:27:43.476Z,1014.91
2017-07-06T02:28:43.498Z,1014.95
2017-07-06T02:29:43.522Z,1014.94
2017-07-06T02:30:43.542Z,1014.92
2017-07-06T02:32:43.588Z,1014.95
2017-07-06T02:33:43.614Z,1014.94
2017-07-06T02:34:43.637Z,1014.96
2017-07-06T02:35:43.661Z,1014.95
2017-07-06T02:36:43.681Z,1014.93
2017-07-06T02:37:43.706Z,1014.95
2017-07-06T02:38:43.728Z,1014.96
2017-07-06T02:39:43.754Z,1014.95
2017-07-06T02:40:43.772Z,1014.96
2017-07-06T02:41:43.799Z,1014.96
2017-07-06T02:42:43.822Z,1014.96
2017-07-06T02:43:43.846Z,1015
2017-07-06T02:44:43.868Z,1014.97
2017-07-06T02:45:43.892Z,1014.96
2017-07-06T02:46:43.913Z,1015.01
2017-07-06T02:48:43.962Z,1014.96
2017-07-06T02:49:43.982Z,1014.99
2017-07-06T02:50:44.008Z,1014.92
2017-07-06T02:51:44.029Z,1014.98
2017-07-06T02:52:44.055Z,1014.97
2017-07-06T02:53:44.081Z,1014.93
2017-07-06T02:54:44.096Z,1014.95
2017-07-06T02:55:44.122Z,1014.93
2017-07-06T02:56:44.145Z,1014.93
2017-07-06T02:57:44.172Z,1014.92
2017-07-06T02:58:44.191Z,1014.9
2017-07-06T02:59:44.515Z,1014.88
2017-07-06T03:00:44.234Z,1014.87
2017-07-06T03:01:44.265Z,1014.88
2017-07-06T03:02:44.283Z,1014.87
2017-07-06T03:04:44.326Z,1014.9
2017-07-06T03:05:44.352Z,1014.91
2017-07-06T03:06:44.375Z,1014.94
2017-07-06T03:07:44.400Z,1014.93
2017-07-06T03:08:44.422Z,1014.93
2017-07-06T03:09:44.441Z,1014.95
2017-07-06T03:10:44.467Z,1014.99
2017-07-06T03:11:44.487Z,1014.95
2017-07-06T03:12:44.514Z,1014.93
2017-07-06T03:13:44.536Z,1014.95
2017-07-06T03:14:44.558Z,1014.97
2017-07-06T03:15:44.582Z,1014.93
2017-07-06T03:16:44.605Z,1014.92
2017-07-06T03:17:44.633Z,1014.93
2017-07-06T03:19:44.679Z,1014.91
2017-07-06T03:20:44.695Z,1014.92
2017-07-06T03:21:44.722Z,1014.93
2017-07-06T03:22:44.744Z,1014.95
2017-07-06T03:23:44.767Z,1014.9
2017-07-06T03:24:44.788Z,1014.88
2017-07-06T03:25:44.815Z,1014.92
2017-07-06T03:26:44.835Z,1014.92
2017-07-06T03:27:44.861Z,1014.9
2017-07-06T03:28:44.882Z,1014.93
2017-07-06T03:29:44.909Z,1014.96
2017-07-06T03:30:44.932Z,1014.98
2017-07-06T03:31:44.954Z,1014.99
2017-07-06T03:32:44.975Z,1015.02
2017-07-06T03:33:45.000Z,1015.01
2017-07-06T03:34:45.020Z,1015.04
2017-07-06T03:35:45.042Z,1015.05
2017-07-06T03:36:45.069Z,1015.04
2017-07-06T03:37:45.093Z,1015.06
2017-07-06T03:38:45.113Z,1015.05
2017-07-06T03:39:45.139Z,1015.06
2017-07-06T03:40:45.167Z,1015.09
2017-07-06T03:41:45.181Z,1015.09
2017-07-06T03:42:45.208Z,1015.1
2017-07-06T03:43:45.228Z,1015.12
2017-07-06T03:44:45.255Z,1015.1
2017-07-06T03:45:45.280Z,1015.15
2017-07-06T03:46:45.301Z,1015.12
2017-07-06T03:47:45.323Z,1015.15
2017-07-06T03:48:45.345Z,1015.17
2017-07-06T03:49:45.369Z,1015.16
2017-07-06T03:51:45.417Z,1015.11
2017-07-06T03:52:45.441Z,1015.12
2017-07-06T03:53:45.463Z,1015.15
2017-07-06T03:54:45.483Z,1015.12
2017-07-06T03:55:45.510Z,1015.11
2017-07-06T03:56:45.543Z,1015.12
2017-07-06T03:57:45.573Z,1015.15
2017-07-06T03:58:45.578Z,1015.16
2017-07-06T03:59:45.603Z,1015.21
2017-07-06T04:00:45.626Z,1015.17
2017-07-06T04:01:45.650Z,1015.18
2017-07-06T04:02:45.672Z,1015.17
2017-07-06T04:03:45.697Z,1015.12
2017-07-06T04:04:45.716Z,1015.13
2017-07-06T04:05:45.740Z,1015.15
2017-07-06T04:07:45.787Z,1015.13
2017-07-06T04:08:45.813Z,1015.15
2017-07-06T04:09:45.836Z,1015.16
2017-07-06T04:10:45.860Z,1015.15
2017-07-06T04:11:45.879Z,1015.16
2017-07-06T04:12:45.904Z,1015.2
2017-07-06T04:13:45.932Z,1015.18
2017-07-06T04:14:45.953Z,1015.22
2017-07-06T04:15:45.978Z,1015.21
2017-07-06T04:16:45.999Z,1015.2
2017-07-06T04:17:46.024Z,1015.21
2017-07-06T04:18:46.043Z,1015.24
2017-07-06T04:19:46.070Z,1015.24
2017-07-06T04:20:46.093Z,1015.23
2017-07-06T04:21:46.116Z,1015.25
2017-07-06T04:23:46.163Z,1015.24
2017-07-06T04:24:46.187Z,1015.28
2017-07-06T04:25:46.213Z,1015.23
2017-07-06T04:26:46.233Z,1015.22
2017-07-06T04:27:46.259Z,1015.22
2017-07-06T04:28:46.281Z,1015.26
2017-07-06T04:29:46.301Z,1015.25
2017-07-06T04:30:46.328Z,1015.28
2017-07-06T04:31:46.349Z,1015.3
2017-07-06T04:32:46.377Z,1015.3
2017-07-06T04:33:46.398Z,1015.32
2017-07-06T04:34:46.423Z,1015.34
2017-07-06T04:35:46.447Z,1015.34
2017-07-06T04:36:46.470Z,1015.34
2017-07-06T04:37:46.494Z,1015.38
2017-07-06T04:39:46.542Z,1015.41
2017-07-06T04:40:46.566Z,1015.4
2017-07-06T04:41:46.585Z,1015.45
2017-07-06T04:42:46.612Z,1015.41
2017-07-06T04:43:46.635Z,1015.48
2017-07-06T04:44:46.662Z,1015.44
2017-07-06T04:45:46.684Z,1015.42
2017-07-06T04:46:46.710Z,1015.73
2017-07-06T04:47:46.729Z,1015.72
2017-07-06T04:48:46.754Z,1015.48
2017-07-06T04:49:46.778Z,1015.46
2017-07-06T04:50:46.809Z,1015.47
2017-07-06T04:51:46.829Z,1015.46
2017-07-06T04:52:46.855Z,1015.53
2017-07-06T04:54:46.902Z,1015.5
2017-07-06T04:55:46.922Z,1015.45
2017-07-06T04:56:46.946Z,1015.47
2017-07-06T04:57:46.974Z,1015.49
2017-07-06T04:58:47.000Z,1015.51
2017-07-06T04:59:47.024Z,1015.49
2017-07-06T05:00:47.042Z,1015.43
2017-07-06T05:01:47.070Z,1015.45
2017-07-06T05:02:47.093Z,1015.49
2017-07-06T05:03:47.120Z,1015.47
2017-07-06T05:04:47.138Z,1015.48
2017-07-06T05:05:47.167Z,1015.5
2017-07-06T05:06:47.192Z,1015.52
2017-07-06T05:07:47.215Z,1015.51
2017-07-06T05:08:47.235Z,1015.5
2017-07-06T05:09:47.264Z,1015.54
2017-07-06T05:10:47.288Z,1015.52
2017-07-06T05:11:47.307Z,1015.52
2017-07-06T05:12:47.333Z,1015.52
2017-07-06T05:13:47.360Z,1015.49
2017-07-06T05:14:47.379Z,1015.5
2017-07-06T05:15:47.407Z,1015.49
2017-07-06T05:16:47.432Z,1015.49
2017-07-06T05:17:47.453Z,1015.52
2017-07-06T05:18:47.481Z,1015.52
2017-07-06T05:19:47.502Z,1015.53
2017-07-06T05:20:47.528Z,1015.56
2017-07-06T05:21:47.548Z,1015.56
2017-07-06T05:22:47.574Z,1015.59
2017-07-06T05:23:47.596Z,1015.58
2017-07-06T05:24:47.622Z,1015.59
2017-07-06T05:26:47.673Z,1015.6
2017-07-06T05:27:47.700Z,1015.59
2017-07-06T05:28:47.718Z,1015.54
2017-07-06T05:29:47.744Z,1015.61
2017-07-06T05:30:47.771Z,1015.64
2017-07-06T05:31:47.796Z,1015.67
2017-07-06T05:32:47.819Z,1015.9
2017-07-06T05:33:47.844Z,1015.74
2017-07-06T05:34:47.871Z,1015.71
2017-07-06T05:35:47.893Z,1015.68
2017-07-06T05:36:47.918Z,1015.66
2017-07-06T05:37:47.939Z,1015.66
2017-07-06T05:38:47.967Z,1015.7
2017-07-06T05:39:47.992Z,1015.69
2017-07-06T05:40:48.020Z,1015.65
2017-07-06T05:42:48.071Z,1015.65
2017-07-06T05:43:48.090Z,1015.65
2017-07-06T05:44:48.119Z,1015.63
2017-07-06T05:45:48.147Z,1015.64
2017-07-06T05:46:48.167Z,1015.62
2017-07-06T05:47:48.190Z,1015.68
2017-07-06T05:48:48.220Z,1015.63
2017-07-06T05:49:48.245Z,1015.66
2017-07-06T05:50:48.273Z,1015.64
2017-07-06T05:51:48.296Z,1015.64
2017-07-06T05:52:48.323Z,1015.67
2017-07-06T05:53:48.346Z,1016.05
2017-07-06T05:54:48.370Z,1015.76
2017-07-06T05:55:48.400Z,1015.81
2017-07-06T05:56:48.423Z,1015.82
2017-07-06T05:58:48.473Z,1015.83
2017-07-06T05:59:48.506Z,1016.18
2017-07-06T06:00:48.631Z,1015.86
2017-07-06T06:01:48.553Z,1015.81
2017-07-06T06:02:48.579Z,1015.8
2017-07-06T06:03:48.608Z,1015.81
2017-07-06T06:04:48.637Z,1015.82
2017-07-06T06:05:48.659Z,1015.89
2017-07-06T06:06:48.689Z,1015.87
2017-07-06T06:07:48.716Z,1015.91
2017-07-06T06:08:48.800Z,1015.87
2017-07-06T06:09:48.771Z,1015.88
2017-07-06T06:10:48.800Z,1015.86
2017-07-06T06:11:48.826Z,1015.86
2017-07-06T06:12:48.850Z,1015.85
2017-07-06T06:14:48.906Z,1015.85
2017-07-06T06:15:48.930Z,1015.85
2017-07-06T06:16:48.959Z,1015.85
2017-07-06T06:17:48.985Z,1015.85
2017-07-06T06:18:49.011Z,1015.86
2017-07-06T06:19:49.039Z,1015.88
2017-07-06T06:20:49.066Z,1015.83
2017-07-06T06:21:49.093Z,1015.83
2017-07-06T06:22:49.118Z,1015.86
2017-07-06T06:23:49.146Z,1015.84
2017-07-06T06:24:49.172Z,1015.85
2017-07-06T06:25:49.197Z,1015.86
2017-07-06T06:26:49.224Z,1015.91
2017-07-06T06:27:49.251Z,1015.88
2017-07-06T06:29:49.304Z,1015.89
2017-07-06T06:30:49.332Z,1015.91
2017-07-06T06:31:49.358Z,1015.94
2017-07-06T06:32:49.383Z,1015.97
2017-07-06T06:33:49.412Z,1015.96
2017-07-06T06:34:49.438Z,1015.94
2017-07-06T06:35:49.467Z,1015.95
2017-07-06T06:36:49.491Z,1016.06
2017-07-06T06:37:49.520Z,1015.97
2017-07-06T06:38:49.543Z,1016.51
2017-07-06T06:39:49.572Z,1016.36
2017-07-06T06:40:49.600Z,1016.82
2017-07-06T06:41:49.626Z,1016.07
2017-07-06T06:42:49.655Z,1016.22
2017-07-06T06:43:49.686Z,1016.02
2017-07-06T06:44:49.710Z,1016.12
2017-07-06T06:45:49.740Z,1016.02
2017-07-06T06:46:49.767Z,1016
2017-07-06T06:47:49.797Z,1015.98
2017-07-06T06:48:49.825Z,1015.95
2017-07-06T06:49:49.854Z,1015.91
2017-07-06T06:50:49.885Z,1015.96
2017-07-06T06:51:49.909Z,1015.98
2017-07-06T06:52:49.940Z,1015.98
2017-07-06T06:53:49.966Z,1015.99
2017-07-06T06:54:49.995Z,1015.97
2017-07-06T06:55:50.025Z,1016.02
2017-07-06T06:56:50.053Z,1016.35
2017-07-06T06:57:50.083Z,1016.15
2017-07-06T06:58:50.111Z,1016.19
2017-07-06T06:59:50.139Z,1016.18
2017-07-06T07:01:50.195Z,1016.16
2017-07-06T07:02:50.224Z,1016.22
2017-07-06T07:03:50.253Z,1017.08
2017-07-06T07:04:50.277Z,1016.33
2017-07-06T07:05:50.310Z,1016.38
2017-07-06T07:06:50.337Z,1016.93
2017-07-06T07:07:50.367Z,1017.19
2017-07-06T07:08:50.397Z,1017.21
2017-07-06T07:09:50.427Z,1017.2
2017-07-06T07:10:50.456Z,1017.24
2017-07-06T07:11:50.487Z,1017.15
2017-07-06T07:12:50.517Z,1017.18
2017-07-06T07:13:50.544Z,1017.21
2017-07-06T07:14:50.579Z,1017.04
2017-07-06T07:15:50.610Z,1017.13
2017-07-06T07:17:50.676Z,1017.17
2017-07-06T07:18:50.704Z,1017.34
2017-07-06T07:19:50.742Z,1017.41
2017-07-06T07:20:50.774Z,1017.52
2017-07-06T07:21:50.804Z,1017.52
2017-07-06T07:22:50.837Z,1017.58
2017-07-06T07:23:50.867Z,1017.64
2017-07-06T07:24:50.956Z,1017.57
2017-07-06T07:25:50.937Z,1017.46
2017-07-06T07:26:50.971Z,1017.59
2017-07-06T07:27:51.054Z,1017.69
2017-07-06T07:28:51.039Z,1017.83
2017-07-06T07:29:51.071Z,1017.85
2017-07-06T07:30:51.102Z,1017.8
2017-07-06T07:31:51.142Z,1017.99
2017-07-06T07:33:51.212Z,1017.94
2017-07-06T07:34:51.241Z,1017.05
2017-07-06T07:35:51.281Z,1016.44
2017-07-06T07:36:51.310Z,1016.5
2017-07-06T07:37:51.348Z,1016.4
2017-07-06T07:38:51.384Z,1016.53
2017-07-06T07:39:51.472Z,1016.44
2017-07-06T07:40:51.452Z,1016.42
2017-07-06T07:41:51.487Z,1016.95
2017-07-06T07:42:51.669Z,1016.51
2017-07-06T07:43:51.554Z,1016.67
2017-07-06T07:44:51.588Z,1016.9
2017-07-06T07:45:51.624Z,1016.64
2017-07-06T07:46:51.658Z,1016.62
2017-07-06T07:47:51.694Z,1016.54
2017-07-06T07:49:51.766Z,1016.5
2017-07-06T07:50:51.796Z,1016.51
2017-07-06T07:51:51.825Z,1016.64
2017-07-06T07:52:51.865Z,1016.74
2017-07-06T07:53:51.897Z,1016.57
2017-07-06T07:54:51.929Z,1016.47
2017-07-06T07:55:51.964Z,1016.43
2017-07-06T07:56:51.997Z,1016.43
2017-07-06T07:57:52.031Z,1016.45
2017-07-06T07:58:52.066Z,1016.41
2017-07-06T07:59:52.097Z,1016.41
2017-07-06T08:00:52.135Z,1016.43
2017-07-06T08:01:52.166Z,1016.46
2017-07-06T08:02:52.194Z,1016.49
2017-07-06T08:04:52.267Z,1016.47
2017-07-06T08:05:52.292Z,1016.5
2017-07-06T08:06:52.329Z,1016.49
2017-07-06T08:07:52.362Z,1016.63
2017-07-06T08:08:52.396Z,1016.47
2017-07-06T08:09:52.423Z,1016.42
2017-07-06T08:10:52.460Z,1016.45
2017-07-06T08:11:52.488Z,1016.46
2017-07-06T08:12:52.522Z,1016.42
2017-07-06T08:13:52.553Z,1016.44
2017-07-06T08:14:52.585Z,1016.41
2017-07-06T08:15:52.615Z,1016.45
2017-07-06T08:16:52.650Z,1016.41
2017-07-06T08:17:52.733Z,1016.43
2017-07-06T08:18:52.714Z,1016.52
2017-07-06T08:19:52.743Z,1016.53
2017-07-06T08:20:52.774Z,1016.72
2017-07-06T08:21:52.808Z,1016.95
2017-07-06T08:22:52.837Z,1016.55
2017-07-06T08:23:52.867Z,1016.51
2017-07-06T08:24:52.901Z,1016.56
2017-07-06T08:25:52.934Z,1016.56
2017-07-06T08:26:52.966Z,1016.59
2017-07-06T08:27:52.992Z,1016.61
2017-07-06T08:28:53.028Z,1016.6
2017-07-06T08:29:53.059Z,1016.68
2017-07-06T08:30:53.192Z,1016.62
2017-07-06T08:31:53.122Z,1016.6
2017-07-06T08:32:53.155Z,1016.6
2017-07-06T08:33:53.235Z,1016.54
2017-07-06T08:34:53.222Z,1016.55
2017-07-06T08:36:53.279Z,1016.54
2017-07-06T08:37:53.314Z,1016.63
2017-07-06T08:38:53.342Z,1016.6
2017-07-06T08:39:53.380Z,1016.69
2017-07-06T08:40:53.406Z,1016.85
2017-07-06T08:41:53.449Z,1016.86
2017-07-06T08:42:53.521Z,1016.77
2017-07-06T08:43:53.505Z,1016.92
2017-07-06T08:44:53.536Z,1016.67
2017-07-06T08:45:53.568Z,1016.59
2017-07-06T08:46:53.602Z,1016.68
2017-07-06T08:47:53.631Z,1016.67
2017-07-06T08:48:53.718Z,1016.72
2017-07-06T08:49:53.697Z,1016.66
2017-07-06T08:50:53.735Z,1016.66
2017-07-06T08:52:53.803Z,1016.69
2017-07-06T08:53:53.831Z,1016.66
2017-07-06T08:54:53.915Z,1016.59
2017-07-06T08:55:53.896Z,1016.54
2017-07-06T08:56:53.933Z,1016.56
2017-07-06T08:57:53.963Z,1016.5
2017-07-06T08:58:53.996Z,1016.51
2017-07-06T08:59:54.032Z,1016.52
2017-07-06T09:00:54.065Z,1016.55
2017-07-06T09:01:54.099Z,1016.56
2017-07-06T09:02:54.132Z,1016.56
2017-07-06T09:03:54.169Z,1016.55
2017-07-06T09:04:54.198Z,1016.56
2017-07-06T09:05:54.234Z,1016.56
2017-07-06T09:06:54.264Z,1016.51
2017-07-06T09:08:54.336Z,1016.47
2017-07-06T09:09:54.365Z,1016.49
2017-07-06T09:10:54.403Z,1016.45
2017-07-06T09:11:54.434Z,1016.49
2017-07-06T09:12:54.470Z,1016.49
2017-07-06T09:13:54.503Z,1016.41
2017-07-06T09:14:54.539Z,1016.39
2017-07-06T09:15:54.575Z,1016.41
2017-07-06T09:16:54.608Z,1016.41
2017-07-06T09:17:54.645Z,1016.4
2017-07-06T09:18:54.674Z,1016.42
2017-07-06T09:19:54.863Z,1016.41
2017-07-06T09:20:54.745Z,1016.39
2017-07-06T09:21:54.780Z,1016.38
2017-07-06T09:22:54.812Z,1016.34
2017-07-06T09:24:54.885Z,1016.38
2017-07-06T09:25:54.978Z,1016.4
2017-07-06T09:26:55.097Z,1016.34
2017-07-06T09:27:54.985Z,1016.33
2017-07-06T09:28:55.017Z,1016.33
2017-07-06T09:29:55.052Z,1016.36
2017-07-06T09:30:55.084Z,1016.33
2017-07-06T09:31:55.120Z,1016.35
2017-07-06T09:32:55.204Z,1016.34
2017-07-06T09:33:55.186Z,1016.32
2017-07-06T09:34:55.218Z,1016.31
2017-07-06T09:35:55.249Z,1016.33
2017-07-06T09:36:55.385Z,1016.32
2017-07-06T09:37:55.318Z,1016.33
2017-07-06T09:39:55.386Z,1016.33
2017-07-06T09:40:55.417Z,1016.33
2017-07-06T09:41:55.446Z,1016.31
2017-07-06T09:42:55.477Z,1016.27
2017-07-06T09:43:55.613Z,1016.27
2017-07-06T09:44:55.544Z,1016.29
2017-07-06T09:45:55.577Z,1016.28
2017-07-06T09:46:55.710Z,1016.29
2017-07-06T09:47:55.643Z,1016.25
2017-07-06T09:48:55.684Z,1016.28
2017-07-06T09:49:55.707Z,1016.3
2017-07-06T09:50:55.840Z,1016.27
2017-07-06T09:51:55.767Z,1016.21
2017-07-06T09:52:55.805Z,1016.27
2017-07-06T09:53:55.833Z,1016.25
2017-07-06T09:54:55.870Z,1016.24
2017-07-06T09:55:55.899Z,1016.18
2017-07-06T09:56:55.934Z,1016.2
2017-07-06T09:57:55.970Z,1016.21
2017-07-06T09:58:55.999Z,1016.18
2017-07-06T09:59:56.033Z,1016.2
2017-07-06T10:00:56.064Z,1016.2
2017-07-06T10:01:56.101Z,1016.18
2017-07-06T10:02:56.131Z,1016.18
2017-07-06T10:03:56.167Z,1016.17
2017-07-06T10:04:56.196Z,1016.12
2017-07-06T10:05:56.231Z,1016.12
2017-07-06T10:06:56.266Z,1016.14
2017-07-06T10:07:56.297Z,1016.09
2017-07-06T10:08:56.380Z,1016.08
2017-07-06T10:09:56.363Z,1016.11
2017-07-06T10:11:56.427Z,1016.07
2017-07-06T10:12:56.462Z,1016.07
2017-07-06T10:13:56.496Z,1016.1
2017-07-06T10:14:56.528Z,1016.03
2017-07-06T10:15:56.561Z,1016.08
2017-07-06T10:16:56.599Z,1016.1
2017-07-06T10:17:56.628Z,1016.09
2017-07-06T10:18:56.661Z,1016.08
2017-07-06T10:19:56.693Z,1016.1
2017-07-06T10:20:56.728Z,1016.11
2017-07-06T10:21:56.962Z,1016.08
2017-07-06T10:22:56.840Z,1016.09
2017-07-06T10:23:56.827Z,1016.09
2017-07-06T10:24:56.860Z,1016.09
2017-07-06T10:25:56.895Z,1016.04
2017-07-06T10:27:56.966Z,1016.08
2017-07-06T10:28:56.989Z,1016.09
2017-07-06T10:29:57.023Z,1016.11
2017-07-06T10:30:57.060Z,1016.1
2017-07-06T10:31:57.089Z,1016.08
2017-07-06T10:32:57.125Z,1016.06
2017-07-06T10:33:57.152Z,1016.07
2017-07-06T10:34:57.288Z,1016.05
2017-07-06T10:35:57.222Z,1016.04
2017-07-06T10:36:57.256Z,1016.03
2017-07-06T10:37:57.284Z,1016.05
2017-07-06T10:38:57.320Z,1015.99
2017-07-06T10:39:57.352Z,1016.04
2017-07-06T10:40:57.385Z,1016.01
2017-07-06T10:41:57.414Z,1016.03
2017-07-06T10:43:57.479Z,1016.07
2017-07-06T10:44:57.516Z,1016.08
2017-07-06T10:45:57.547Z,1016.06
2017-07-06T10:46:57.581Z,1016.05
2017-07-06T10:47:57.610Z,1016.02
2017-07-06T10:48:57.646Z,1016.01
2017-07-06T10:49:57.679Z,1016.01
2017-07-06T10:50:57.914Z,1016.04
2017-07-06T10:51:57.741Z,1016.04
2017-07-06T10:52:57.775Z,1015.99
2017-07-06T10:53:57.811Z,1016
2017-07-06T10:54:57.838Z,1016
2017-07-06T10:55:57.877Z,1015.97
2017-07-06T10:56:57.903Z,1015.95
2017-07-06T10:57:57.939Z,1015.94
2017-07-06T10:59:58.000Z,1015.92
2017-07-06T11:00:58.036Z,1015.92
2017-07-06T11:01:58.066Z,1015.91
2017-07-06T11:02:58.101Z,1015.93
2017-07-06T11:03:58.132Z,1015.91
2017-07-06T11:04:58.161Z,1015.92
2017-07-06T11:05:58.191Z,1015.94
2017-07-06T11:06:58.227Z,1015.97
2017-07-06T11:07:58.263Z,1015.93
2017-07-06T11:08:58.294Z,1015.92
2017-07-06T11:09:58.323Z,1015.92
2017-07-06T11:10:58.361Z,1015.92
2017-07-06T11:11:58.389Z,1015.9
2017-07-06T11:12:58.426Z,1015.87
2017-07-06T11:14:58.486Z,1015.89
2017-07-06T11:15:58.517Z,1015.92
2017-07-06T11:16:58.547Z,1015.97
2017-07-06T11:17:58.583Z,1015.91
2017-07-06T11:18:58.612Z,1015.91
2017-07-06T11:19:58.646Z,1015.9
2017-07-06T11:20:58.679Z,1015.88
2017-07-06T11:21:58.710Z,1015.87
2017-07-06T11:22:58.735Z,1015.88
2017-07-06T11:23:58.769Z,1015.88
2017-07-06T11:24:58.801Z,1015.86
2017-07-06T11:25:58.831Z,1015.88
2017-07-06T11:26:58.862Z,1015.84
2017-07-06T11:27:58.890Z,1015.85
2017-07-06T11:28:58.928Z,1015.88
2017-07-06T11:29:58.958Z,1015.83
2017-07-06T11:30:58.990Z,1015.81
2017-07-06T11:31:59.018Z,1015.81
2017-07-06T11:32:59.054Z,1015.74
2017-07-06T11:33:59.085Z,1015.74
2017-07-06T11:34:59.115Z,1015.69
2017-07-06T11:35:59.147Z,1015.72
2017-07-06T11:36:59.179Z,1015.71
2017-07-06T11:37:59.206Z,1015.67
2017-07-06T11:38:59.243Z,1015.64
2017-07-06T11:39:59.275Z,1015.62
2017-07-06T11:40:59.304Z,1015.61
2017-07-06T11:41:59.335Z,1015.61
2017-07-06T11:42:59.421Z,1015.6
2017-07-06T11:43:59.397Z,1015.57
2017-07-06T11:44:59.430Z,1015.62
2017-07-06T11:46:59.491Z,1015.56
2017-07-06T11:47:59.522Z,1015.59
2017-07-06T11:48:59.548Z,1015.54
2017-07-06T11:49:59.585Z,1015.51
2017-07-06T11:50:59.617Z,1015.53
2017-07-06T11:51:59.642Z,1015.49
2017-07-06T11:52:59.676Z,1015.48
2017-07-06T11:53:59.809Z,1015.49
2017-07-06T11:54:59.737Z,1015.54
2017-07-06T11:55:59.766Z,1015.5
2017-07-06T11:56:59.798Z,1015.47
2017-07-06T11:57:59.832Z,1015.46
2017-07-06T11:58:59.857Z,1015.52
2017-07-06T11:59:59.941Z,1015.55
2017-07-06T12:01:00.021Z,1015.5
2017-07-06T12:02:59.985Z,1015.5
2017-07-06T12:04:00.015Z,1015.47
2017-07-06T12:05:00.040Z,1015.46
2017-07-06T12:06:00.071Z,1015.43
2017-07-06T12:07:00.103Z,1015.43
2017-07-06T12:08:00.131Z,1015.42
2017-07-06T12:09:00.164Z,1015.43
2017-07-06T12:10:00.291Z,1015.43
2017-07-06T12:11:00.227Z,1015.42
2017-07-06T12:12:00.257Z,1015.44
2017-07-06T12:13:00.283Z,1015.44
2017-07-06T12:14:00.515Z,1015.45
2017-07-06T12:15:00.343Z,1015.47
2017-07-06T12:16:00.375Z,1015.4
2017-07-06T12:17:00.406Z,1015.43
2017-07-06T12:19:00.466Z,1015.42
2017-07-06T12:20:00.498Z,1015.41
2017-07-06T12:21:00.529Z,1015.44
2017-07-06T12:22:00.558Z,1015.41
2017-07-06T12:23:00.590Z,1015.35
2017-07-06T12:24:00.774Z,1015.38
2017-07-06T12:25:00.646Z,1015.4
2017-07-06T12:26:00.678Z,1015.39
2017-07-06T12:27:00.859Z,1015.38
2017-07-06T12:28:00.742Z,1015.39
2017-07-06T12:29:00.768Z,1015.41
2017-07-06T12:30:00.799Z,1015.4
2017-07-06T12:31:00.986Z,1015.42
2017-07-06T12:32:00.859Z,1015.38
2017-07-06T12:33:00.889Z,1015.38
2017-07-06T12:35:00.947Z,1015.32
2017-07-06T12:36:00.979Z,1015.35
2017-07-06T12:37:01.011Z,1015.33
2017-07-06T12:38:01.038Z,1015.3
2017-07-06T12:39:01.073Z,1015.26
2017-07-06T12:40:01.099Z,1015.28
2017-07-06T12:41:01.134Z,1015.29
2017-07-06T12:42:01.162Z,1015.25
2017-07-06T12:43:01.192Z,1015.27
2017-07-06T12:44:01.222Z,1015.27
2017-07-06T12:45:01.252Z,1015.25
2017-07-06T12:46:01.283Z,1015.23
2017-07-06T12:47:01.313Z,1015.25
2017-07-06T12:48:01.443Z,1015.26
2017-07-06T12:50:01.407Z,1015.26